Picayune, MS (39466)

05:22 PM CDT die 22o October, anno 2014 (GMT -0500)
Hide_A_Way Lake ~OWX | Change Station
CLOSE
Current Station
Personal Weather Stations
Location: Carriere, MS
Elevation: 100 ft
Nearby Weather Stations

Elev 100 ft 30.58 °N, 89.65 °W | Updated 11 seconds ago

Serena
Serena
79.2 °F
Feels Like 80 °F
N
0.0
Ventus Variabilis Ventus from Magis Eurus quam Aquilo
Gusts 6.0 mph

Hodie
High -- | Low -- °F
--% Chance of Precip.
Yesterday
High -- | Low -- °F
Precip. -- in
7:05 AM 6:19 PM
Waning Crescent, 1% visible
Pressio 30.02 in
Visibilitas 10.0 milia passuum
Clouds Serena
Index Caloris 80 °F
Frigus in quo Ros apparet 57 °F
Umor 47%
Rainfall 0.00 in
Snow Depth Not available.
UV 0.0 out of 12
Pollen 3.60 out of 12
Ozone Good
PM2.5 Good
Flu Activity No Activity
METAR KASD 222153Z AUTO 02006KT 10SM CLR 26/11 A3002 RMK AO2 SLP164 T02610106

More Conditions Fewer Conditions

Pressio 30.02 in
Visibilitas 10.0 milia passuum
Clouds Serena
Index Caloris 80 °F
Frigus in quo Ros apparet 57 °F
Umor 47%
Rainfall 0.00 in
Snow Depth Not available.
UV 0.0 out of 12
Pollen 3.60 out of 12
Ozone Good
PM2.5 Good
Flu Activity No Activity
METAR KASD 222153Z AUTO 02006KT 10SM CLR 26/11 A3002 RMK AO2 SLP164 T02610106

More Conditions Fewer Conditions

10-Day Weather Forecast

Almanac

Astronomy

Oct. 22, 2014 Rise Set
Actual Time 7:05 AM CDT 6:19 PM CDT
Civil Twilight 6:41 AM CDT 6:44 PM CDT
Nautical Twilight 6:13 AM CDT 7:12 PM CDT
Astronomical Twilight 5:45 AM CDT 7:40 PM CDT
Moon 5:52 AM CDT 5:43 PM CDT
Length Of Visible Light 12h 03m
Length of Day
11h 14m
Tomorrow will be 1m 43s shorter.
Waning Crescent, 1% of the Moon is Illuminated
Hodie
Waning Crescent
Oct 23
New
Oct 30
First Quarter
Nov 6
Full
Nov 14
Last Quarter

Today's Extremes

State Highs State Lows

Community

WunderPhotos

Upload Photos

1,764,064 photos uploaded!

WunderBlogs® & News

Nearby

Air Quality

  Air Quality AQ Index Pollutant
Yesterday Good
PM2.5
Yesterday Good
OZONE
Current Good
OZONE
Current Good
PM2.5
Die Mercurii Moderate
PM2.5
Die Mercurii Good
OZONE
Die Jovis Good
OZONE
Die Jovis Good
PM2.5
Die Veneris Good
OZONE
Die Veneris Good
PM2.5
Die Saturni Good
OZONE
Die Saturni Good
PM2.5

Snow Depth

Station Depth Elevation
No new snow has been reported.

Earthquake Activity

City Distance Mag. Time & Date
No recent earthquake activity has been reported nearby.
Minimum magnitude displayed is 2.5.

Coastal Water Temperatures

Locus Calor
No Stations Reporting

Nearby Weather Stations